sensor_id;sensor_type;location;lat;lon;timestamp;pressure;altitude;pressure_sealevel;temperature;humidity
62697;BME280;48761;42.680;23.312;2024-03-29T00:01:50;94561.94;;;13.55;50.08
62697;BME280;48761;42.680;23.312;2024-03-29T00:04:16;94569.81;;;13.47;50.41
62697;BME280;48761;42.680;23.312;2024-03-29T00:06:42;94565.97;;;13.61;50.08
62697;BME280;48761;42.680;23.312;2024-03-29T00:09:08;94563.06;;;13.53;50.10
62697;BME280;48761;42.680;23.312;2024-03-29T00:11:34;94573.38;;;13.58;49.95
62697;BME280;48761;42.680;23.312;2024-03-29T00:13:59;94578.06;;;13.44;50.26
62697;BME280;48761;42.680;23.312;2024-03-29T00:16:25;94576.03;;;13.58;49.83
62697;BME280;48761;42.680;23.312;2024-03-29T00:18:52;94577.03;;;13.56;49.97
62697;BME280;48761;42.680;23.312;2024-03-29T00:21:18;94577.06;;;13.45;50.37
62697;BME280;48761;42.680;23.312;2024-03-29T00:23:44;94583.69;;;13.62;50.03
62697;BME280;48761;42.680;23.312;2024-03-29T00:26:10;94587.09;;;13.74;50.14
62697;BME280;48761;42.680;23.312;2024-03-29T00:28:35;94587.19;;;13.94;48.89
62697;BME280;48761;42.680;23.312;2024-03-29T00:31:01;94598.34;;;13.78;48.79
62697;BME280;48761;42.680;23.312;2024-03-29T00:33:27;94602.41;;;13.72;49.39
62697;BME280;48761;42.680;23.312;2024-03-29T00:35:53;94598.94;;;13.82;49.38
62697;BME280;48761;42.680;23.312;2024-03-29T00:38:19;94599.56;;;13.95;48.79
62697;BME280;48761;42.680;23.312;2024-03-29T00:40:45;94601.25;;;13.43;49.75
62697;BME280;48761;42.680;23.312;2024-03-29T00:43:11;94600.72;;;13.28;50.14
62697;BME280;48761;42.680;23.312;2024-03-29T00:45:37;94605.28;;;13.38;49.95
62697;BME280;48761;42.680;23.312;2024-03-29T00:48:03;94610.44;;;13.72;49.50
62697;BME280;48761;42.680;23.312;2024-03-29T00:50:29;94610.19;;;13.85;49.03
62697;BME280;48761;42.680;23.312;2024-03-29T00:52:55;94619.66;;;13.89;49.05
62697;BME280;48761;42.680;23.312;2024-03-29T00:55:20;94615.03;;;14.01;48.79
62697;BME280;48761;42.680;23.312;2024-03-29T00:57:46;94604.16;;;13.93;48.82
62697;BME280;48761;42.680;23.312;2024-03-29T01:00:12;94614.84;;;13.93;49.44
62697;BME280;48761;42.680;23.312;2024-03-29T01:02:38;94609.00;;;13.99;49.04
62697;BME280;48761;42.680;23.312;2024-03-29T01:05:05;94609.97;;;13.98;49.10
62697;BME280;48761;42.680;23.312;2024-03-29T01:07:31;94615.94;;;14.12;48.48
62697;BME280;48761;42.680;23.312;2024-03-29T01:09:57;94608.28;;;13.97;48.57
62697;BME280;48761;42.680;23.312;2024-03-29T01:12:23;94612.38;;;14.01;48.77
62697;BME280;48761;42.680;23.312;2024-03-29T01:14:49;94614.50;;;14.08;48.44
62697;BME280;48761;42.680;23.312;2024-03-29T01:17:15;94609.66;;;13.92;48.48
62697;BME280;48761;42.680;23.312;2024-03-29T01:19:41;94620.56;;;13.78;48.70
62697;BME280;48761;42.680;23.312;2024-03-29T01:22:07;94620.59;;;13.88;48.70
62697;BME280;48761;42.680;23.312;2024-03-29T01:24:33;94620.66;;;13.98;48.29
62697;BME280;48761;42.680;23.312;2024-03-29T01:26:58;94626.69;;;14.00;48.27
62697;BME280;48761;42.680;23.312;2024-03-29T01:29:24;94625.41;;;13.85;48.96
62697;BME280;48761;42.680;23.312;2024-03-29T01:31:50;94622.88;;;13.93;48.22
62697;BME280;48761;42.680;23.312;2024-03-29T01:34:16;94626.75;;;13.79;48.81
62697;BME280;48761;42.680;23.312;2024-03-29T01:36:42;94614.41;;;13.88;48.67
62697;BME280;48761;42.680;23.312;2024-03-29T01:39:08;94617.53;;;13.93;48.85
62697;BME280;48761;42.680;23.312;2024-03-29T01:41:34;94624.72;;;13.93;49.05
62697;BME280;48761;42.680;23.312;2024-03-29T01:44:00;94617.16;;;13.23;50.18
62697;BME280;48761;42.680;23.312;2024-03-29T01:46:26;94637.50;;;13.46;50.08
62697;BME280;48761;42.680;23.312;2024-03-29T01:48:53;94648.13;;;13.36;50.30
62697;BME280;48761;42.680;23.312;2024-03-29T01:51:23;94649.22;;;13.55;49.70
62697;BME280;48761;42.680;23.312;2024-03-29T01:53:50;94652.44;;;13.49;49.80
62697;BME280;48761;42.680;23.312;2024-03-29T01:56:20;94662.16;;;13.50;49.81
62697;BME280;48761;42.680;23.312;2024-03-29T01:58:51;94665.72;;;13.60;49.80
62697;BME280;48761;42.680;23.312;2024-03-29T02:01:18;94676.19;;;13.30;50.24
62697;BME280;48761;42.680;23.312;2024-03-29T02:03:45;94668.38;;;13.39;49.99
62697;BME280;48761;42.680;23.312;2024-03-29T02:06:11;94689.56;;;13.52;50.00
62697;BME280;48761;42.680;23.312;2024-03-29T02:08:37;94691.22;;;13.53;50.18
62697;BME280;48761;42.680;23.312;2024-03-29T02:11:03;94707.66;;;13.48;50.72
62697;BME280;48761;42.680;23.312;2024-03-29T02:13:29;94703.75;;;13.52;50.89
62697;BME280;48761;42.680;23.312;2024-03-29T02:15:55;94710.63;;;13.55;50.88
62697;BME280;48761;42.680;23.312;2024-03-29T02:18:21;94720.06;;;13.38;51.32
62697;BME280;48761;42.680;23.312;2024-03-29T02:20:47;94727.59;;;13.44;50.69
62697;BME280;48761;42.680;23.312;2024-03-29T02:23:27;94734.81;;;13.53;50.91
62697;BME280;48761;42.680;23.312;2024-03-29T02:25:55;94731.09;;;13.44;51.26
62697;BME280;48761;42.680;23.312;2024-03-29T02:28:22;94737.31;;;13.33;51.60
62697;BME280;48761;42.680;23.312;2024-03-29T02:30:49;94751.00;;;13.40;50.84
62697;BME280;48761;42.680;23.312;2024-03-29T02:33:16;94755.53;;;13.40;50.71
62697;BME280;48761;42.680;23.312;2024-03-29T02:35:42;94749.50;;;13.26;51.16
62697;BME280;48761;42.680;23.312;2024-03-29T02:38:08;94756.34;;;13.40;51.01
62697;BME280;48761;42.680;23.312;2024-03-29T02:40:34;94763.38;;;13.41;51.20
62697;BME280;48761;42.680;23.312;2024-03-29T02:43:00;94764.75;;;13.36;51.34
62697;BME280;48761;42.680;23.312;2024-03-29T02:45:25;94777.38;;;13.33;51.62
62697;BME280;48761;42.680;23.312;2024-03-29T02:47:51;94765.69;;;13.46;51.28
62697;BME280;48761;42.680;23.312;2024-03-29T02:50:17;94766.94;;;13.30;51.45
62697;BME280;48761;42.680;23.312;2024-03-29T02:52:43;94763.41;;;13.30;51.58
62697;BME280;48761;42.680;23.312;2024-03-29T02:55:09;94772.44;;;13.17;52.02
62697;BME280;48761;42.680;23.312;2024-03-29T02:57:35;94765.91;;;13.21;51.82
62697;BME280;48761;42.680;23.312;2024-03-29T03:00:01;94764.78;;;13.24;51.92
62697;BME280;48761;42.680;23.312;2024-03-29T03:02:27;94768.81;;;13.18;52.10
62697;BME280;48761;42.680;23.312;2024-03-29T03:04:53;94770.50;;;13.19;52.26
62697;BME280;48761;42.680;23.312;2024-03-29T03:07:18;94776.94;;;13.17;52.22
62697;BME280;48761;42.680;23.312;2024-03-29T03:09:44;94772.72;;;13.14;52.43
62697;BME280;48761;42.680;23.312;2024-03-29T03:12:10;94788.34;;;13.07;52.53
62697;BME280;48761;42.680;23.312;2024-03-29T03:14:36;94795.63;;;13.17;52.60
62697;BME280;48761;42.680;23.312;2024-03-29T03:17:02;94796.09;;;13.22;52.16
62697;BME280;48761;42.680;23.312;2024-03-29T03:19:28;94799.50;;;13.24;52.14
62697;BME280;48761;42.680;23.312;2024-03-29T03:21:54;94809.69;;;13.07;52.41
62697;BME280;48761;42.680;23.312;2024-03-29T03:24:20;94808.41;;;13.02;52.65
62697;BME280;48761;42.680;23.312;2024-03-29T03:26:45;94802.22;;;13.01;52.83
62697;BME280;48761;42.680;23.312;2024-03-29T03:29:11;94803.41;;;12.97;52.82
62697;BME280;48761;42.680;23.312;2024-03-29T03:31:37;94811.88;;;13.02;53.07
62697;BME280;48761;42.680;23.312;2024-03-29T03:34:03;94811.78;;;12.92;53.17
62697;BME280;48761;42.680;23.312;2024-03-29T03:36:29;94811.41;;;12.97;53.04
62697;BME280;48761;42.680;23.312;2024-03-29T03:38:55;94816.53;;;12.88;53.40
62697;BME280;48761;42.680;23.312;2024-03-29T03:41:21;94822.22;;;12.95;53.39
62697;BME280;48761;42.680;23.312;2024-03-29T03:43:47;94826.97;;;12.92;53.62
62697;BME280;48761;42.680;23.312;2024-03-29T03:46:12;94832.31;;;12.46;54.41
62697;BME280;48761;42.680;23.312;2024-03-29T03:48:38;94845.03;;;12.53;54.43
62697;BME280;48761;42.680;23.312;2024-03-29T03:51:04;94842.00;;;12.58;54.35
62697;BME280;48761;42.680;23.312;2024-03-29T03:53:30;94849.41;;;12.66;54.05
62697;BME280;48761;42.680;23.312;2024-03-29T03:55:56;94854.13;;;12.74;53.62
62697;BME280;48761;42.680;23.312;2024-03-29T03:58:22;94855.94;;;12.73;53.94
62697;BME280;48761;42.680;23.312;2024-03-29T04:00:49;94861.63;;;12.80;54.07
62697;BME280;48761;42.680;23.312;2024-03-29T04:03:15;94849.53;;;12.76;54.03
62697;BME280;48761;42.680;23.312;2024-03-29T04:05:41;94850.84;;;12.70;54.20
62697;BME280;48761;42.680;23.312;2024-03-29T04:08:06;94857.28;;;12.68;54.40
62697;BME280;48761;42.680;23.312;2024-03-29T04:10:37;94848.28;;;12.46;55.27
62697;BME280;48761;42.680;23.312;2024-03-29T04:13:03;94855.81;;;12.63;54.87
62697;BME280;48761;42.680;23.312;2024-03-29T04:15:29;94857.63;;;12.51;55.39
62697;BME280;48761;42.680;23.312;2024-03-29T04:17:56;94870.81;;;12.41;55.41
62697;BME280;48761;42.680;23.312;2024-03-29T04:20:22;94872.03;;;12.37;55.59
62697;BME280;48761;42.680;23.312;2024-03-29T04:22:48;94875.69;;;12.59;55.00
62697;BME280;48761;42.680;23.312;2024-03-29T04:25:13;94893.84;;;12.54;55.18
62697;BME280;48761;42.680;23.312;2024-03-29T04:27:39;94889.78;;;12.61;55.11
62697;BME280;48761;42.680;23.312;2024-03-29T04:30:06;94896.31;;;12.69;54.67
62697;BME280;48761;42.680;23.312;2024-03-29T04:32:32;94895.34;;;12.58;54.94
62697;BME280;48761;42.680;23.312;2024-03-29T04:34:58;94895.56;;;12.66;54.54
62697;BME280;48761;42.680;23.312;2024-03-29T04:37:24;94908.19;;;12.76;54.42
62697;BME280;48761;42.680;23.312;2024-03-29T04:39:49;94908.03;;;12.54;55.50
62697;BME280;48761;42.680;23.312;2024-03-29T04:42:15;94906.63;;;12.85;55.34
62697;BME280;48761;42.680;23.312;2024-03-29T04:44:41;94914.97;;;13.38;54.44
62697;BME280;48761;42.680;23.312;2024-03-29T04:47:07;94918.81;;;13.68;53.84
62697;BME280;48761;42.680;23.312;2024-03-29T04:49:33;94932.91;;;14.03;54.27
62697;BME280;48761;42.680;23.312;2024-03-29T04:51:59;94928.47;;;14.46;53.02
62697;BME280;48761;42.680;23.312;2024-03-29T04:54:26;94935.84;;;14.76;52.06
62697;BME280;48761;42.680;23.312;2024-03-29T04:56:52;94927.69;;;14.99;50.58
62697;BME280;48761;42.680;23.312;2024-03-29T04:59:19;94936.41;;;15.32;49.83
62697;BME280;48761;42.680;23.312;2024-03-29T05:01:45;94938.06;;;15.65;48.95
62697;BME280;48761;42.680;23.312;2024-03-29T05:04:11;94945.28;;;15.74;48.40
62697;BME280;48761;42.680;23.312;2024-03-29T05:06:36;94951.97;;;16.00;47.48
62697;BME280;48761;42.680;23.312;2024-03-29T05:09:02;94954.81;;;16.18;47.20
62697;BME280;48761;42.680;23.312;2024-03-29T05:11:28;94954.81;;;16.38;46.79
62697;BME280;48761;42.680;23.312;2024-03-29T05:13:54;94961.03;;;16.49;46.04
62697;BME280;48761;42.680;23.312;2024-03-29T05:16:20;94959.59;;;16.64;45.58
62697;BME280;48761;42.680;23.312;2024-03-29T05:18:46;94963.72;;;16.78;45.38
62697;BME280;48761;42.680;23.312;2024-03-29T05:21:12;94957.84;;;17.03;44.34
62697;BME280;48761;42.680;23.312;2024-03-29T05:23:38;94969.13;;;17.27;44.14
62697;BME280;48761;42.680;23.312;2024-03-29T05:26:03;94974.88;;;17.32;44.08
62697;BME280;48761;42.680;23.312;2024-03-29T05:28:29;94972.72;;;17.45;43.65
62697;BME280;48761;42.680;23.312;2024-03-29T05:30:55;94971.28;;;17.51;44.31
62697;BME280;48761;42.680;23.312;2024-03-29T05:33:21;94981.94;;;17.71;44.04
62697;BME280;48761;42.680;23.312;2024-03-29T05:35:47;94979.41;;;18.16;43.37
62697;BME280;48761;42.680;23.312;2024-03-29T05:38:13;94984.38;;;18.39;42.50
62697;BME280;48761;42.680;23.312;2024-03-29T05:40:39;94985.28;;;18.66;42.27
62697;BME280;48761;42.680;23.312;2024-03-29T05:43:05;94985.34;;;18.93;41.37
62697;BME280;48761;42.680;23.312;2024-03-29T05:45:31;94975.22;;;19.13;40.91
62697;BME280;48761;42.680;23.312;2024-03-29T05:47:58;94984.31;;;19.39;40.15
62697;BME280;48761;42.680;23.312;2024-03-29T05:50:25;94972.09;;;19.53;39.38
62697;BME280;48761;42.680;23.312;2024-03-29T05:52:52;94970.88;;;19.74;39.72
62697;BME280;48761;42.680;23.312;2024-03-29T05:55:18;94985.06;;;19.93;39.30
62697;BME280;48761;42.680;23.312;2024-03-29T05:57:44;94974.28;;;19.93;39.05
62697;BME280;48761;42.680;23.312;2024-03-29T06:00:11;94983.25;;;20.10;38.69
62697;BME280;48761;42.680;23.312;2024-03-29T06:02:38;94975.59;;;19.80;38.79
62697;BME280;48761;42.680;23.312;2024-03-29T06:05:04;94986.94;;;20.44;37.50
62697;BME280;48761;42.680;23.312;2024-03-29T06:07:31;94989.47;;;19.94;37.56
62697;BME280;48761;42.680;23.312;2024-03-29T06:09:57;94980.50;;;20.37;36.83
62697;BME280;48761;42.680;23.312;2024-03-29T06:12:22;94996.91;;;20.69;36.83
62697;BME280;48761;42.680;23.312;2024-03-29T06:14:48;94994.00;;;20.45;37.07
62697;BME280;48761;42.680;23.312;2024-03-29T06:17:14;95001.50;;;21.02;36.14
62697;BME280;48761;42.680;23.312;2024-03-29T06:19:40;94995.75;;;20.80;35.88
62697;BME280;48761;42.680;23.312;2024-03-29T06:22:06;94993.66;;;20.40;36.71
62697;BME280;48761;42.680;23.312;2024-03-29T06:24:32;95003.16;;;21.28;35.56
62697;BME280;48761;42.680;23.312;2024-03-29T06:26:58;94992.38;;;21.11;35.75
62697;BME280;48761;42.680;23.312;2024-03-29T06:29:24;95004.19;;;21.27;35.78
62697;BME280;48761;42.680;23.312;2024-03-29T06:31:49;94999.72;;;21.59;35.44
62697;BME280;48761;42.680;23.312;2024-03-29T06:34:15;95004.84;;;21.29;35.32
62697;BME280;48761;42.680;23.312;2024-03-29T06:36:41;94998.34;;;20.21;36.31
62697;BME280;48761;42.680;23.312;2024-03-29T06:39:07;95004.66;;;20.47;36.08
62697;BME280;48761;42.680;23.312;2024-03-29T06:41:33;94999.38;;;21.54;34.40
62697;BME280;48761;42.680;23.312;2024-03-29T06:43:59;95006.50;;;20.63;35.68
62697;BME280;48761;42.680;23.312;2024-03-29T06:46:25;95008.81;;;20.24;36.42
62697;BME280;48761;42.680;23.312;2024-03-29T06:48:51;95008.53;;;20.44;35.46
62697;BME280;48761;42.680;23.312;2024-03-29T06:51:16;95007.41;;;21.22;34.91
62697;BME280;48761;42.680;23.312;2024-03-29T06:53:42;95008.28;;;20.21;35.95
62697;BME280;48761;42.680;23.312;2024-03-29T06:56:08;95005.28;;;19.19;37.27
62697;BME280;48761;42.680;23.312;2024-03-29T06:58:34;95003.41;;;20.24;36.10
62697;BME280;48761;42.680;23.312;2024-03-29T07:01:00;95012.59;;;20.99;35.24
62697;BME280;48761;42.680;23.312;2024-03-29T07:03:26;95019.22;;;21.21;34.56
62697;BME280;48761;42.680;23.312;2024-03-29T07:05:52;95019.72;;;20.83;35.46
62697;BME280;48761;42.680;23.312;2024-03-29T07:08:18;95007.16;;;20.40;36.75
62697;BME280;48761;42.680;23.312;2024-03-29T07:10:43;95018.28;;;20.37;36.08
62697;BME280;48761;42.680;23.312;2024-03-29T07:13:09;95020.44;;;19.81;37.03
62697;BME280;48761;42.680;23.312;2024-03-29T07:15:35;95025.56;;;20.01;37.00
62697;BME280;48761;42.680;23.312;2024-03-29T07:18:02;95024.19;;;19.97;37.17
62697;BME280;48761;42.680;23.312;2024-03-29T07:20:28;95023.03;;;20.35;36.63
62697;BME280;48761;42.680;23.312;2024-03-29T07:22:54;95029.16;;;20.87;36.18
62697;BME280;48761;42.680;23.312;2024-03-29T07:25:20;95022.06;;;20.69;36.45
62697;BME280;48761;42.680;23.312;2024-03-29T07:27:46;95030.47;;;20.66;35.93
62697;BME280;48761;42.680;23.312;2024-03-29T07:30:12;95030.47;;;20.66;36.09
62697;BME280;48761;42.680;23.312;2024-03-29T07:32:38;95027.13;;;20.64;36.23
62697;BME280;48761;42.680;23.312;2024-03-29T07:35:04;95027.47;;;20.69;36.26
62697;BME280;48761;42.680;23.312;2024-03-29T07:37:30;95026.81;;;21.34;35.44
62697;BME280;48761;42.680;23.312;2024-03-29T07:39:56;95033.56;;;21.38;35.11
62697;BME280;48761;42.680;23.312;2024-03-29T07:42:22;95037.91;;;21.65;34.83
62697;BME280;48761;42.680;23.312;2024-03-29T07:44:48;95037.25;;;20.79;36.26
62697;BME280;48761;42.680;23.312;2024-03-29T07:47:14;95022.31;;;20.33;36.36
62697;BME280;48761;42.680;23.312;2024-03-29T07:49:40;95021.38;;;22.95;33.23
62697;BME280;48761;42.680;23.312;2024-03-29T07:52:06;95017.50;;;22.11;33.62
62697;BME280;48761;42.680;23.312;2024-03-29T07:54:32;95015.66;;;22.67;33.11
62697;BME280;48761;42.680;23.312;2024-03-29T07:56:58;95014.63;;;23.69;31.41
62697;BME280;48761;42.680;23.312;2024-03-29T07:59:24;95024.06;;;23.43;31.70
62697;BME280;48761;42.680;23.312;2024-03-29T08:01:50;95027.13;;;23.93;31.73
62697;BME280;48761;42.680;23.312;2024-03-29T08:04:16;95032.59;;;23.55;32.87
62697;BME280;48761;42.680;23.312;2024-03-29T08:06:45;95030.97;;;22.83;34.33
62697;BME280;48761;42.680;23.312;2024-03-29T08:09:10;95028.63;;;22.80;34.29
62697;BME280;48761;42.680;23.312;2024-03-29T08:11:36;95024.66;;;23.53;33.12
62697;BME280;48761;42.680;23.312;2024-03-29T08:14:02;95021.13;;;23.98;33.31
62697;BME280;48761;42.680;23.312;2024-03-29T08:16:28;95016.31;;;24.15;32.06
62697;BME280;48761;42.680;23.312;2024-03-29T08:18:54;95009.97;;;23.24;33.28
62697;BME280;48761;42.680;23.312;2024-03-29T08:21:20;95012.94;;;22.67;34.26
62697;BME280;48761;42.680;23.312;2024-03-29T08:23:46;95007.97;;;22.15;34.23
62697;BME280;48761;42.680;23.312;2024-03-29T08:26:12;94999.97;;;21.90;35.07
62697;BME280;48761;42.680;23.312;2024-03-29T08:28:38;94999.75;;;22.00;34.18
62697;BME280;48761;42.680;23.312;2024-03-29T08:31:06;94999.13;;;23.24;33.28
62697;BME280;48761;42.680;23.312;2024-03-29T08:33:32;94993.56;;;22.55;33.75
62697;BME280;48761;42.680;23.312;2024-03-29T08:35:58;94994.50;;;23.48;33.40
62697;BME280;48761;42.680;23.312;2024-03-29T08:38:24;94985.56;;;23.93;33.92
62697;BME280;48761;42.680;23.312;2024-03-29T08:40:50;94989.91;;;23.33;32.22
62697;BME280;48761;42.680;23.312;2024-03-29T08:43:16;94984.75;;;23.38;33.48
62697;BME280;48761;42.680;23.312;2024-03-29T08:45:42;94983.22;;;23.74;32.29
62697;BME280;48761;42.680;23.312;2024-03-29T08:48:08;94985.28;;;23.18;33.14
62697;BME280;48761;42.680;23.312;2024-03-29T08:50:34;94982.72;;;23.40;34.35
62697;BME280;48761;42.680;23.312;2024-03-29T08:53:01;94985.50;;;24.23;31.54
62697;BME280;48761;42.680;23.312;2024-03-29T08:55:27;94981.59;;;24.11;32.11
62697;BME280;48761;42.680;23.312;2024-03-29T08:57:53;94979.22;;;23.70;32.54
62697;BME280;48761;42.680;23.312;2024-03-29T09:00:19;94976.00;;;23.97;31.13
62697;BME280;48761;42.680;23.312;2024-03-29T09:02:46;94967.53;;;24.22;30.54
62697;BME280;48761;42.680;23.312;2024-03-29T09:05:12;94961.06;;;23.71;32.36
62697;BME280;48761;42.680;23.312;2024-03-29T09:07:38;94964.13;;;23.83;31.04
62697;BME280;48761;42.680;23.312;2024-03-29T09:10:04;94952.59;;;24.26;30.19
62697;BME280;48761;42.680;23.312;2024-03-29T09:12:30;94953.56;;;24.25;29.47
62697;BME280;48761;42.680;23.312;2024-03-29T09:14:56;94954.56;;;24.55;29.68
62697;BME280;48761;42.680;23.312;2024-03-29T09:17:22;94949.19;;;24.61;30.63
62697;BME280;48761;42.680;23.312;2024-03-29T09:19:51;94942.00;;;24.16;31.33
62697;BME280;48761;42.680;23.312;2024-03-29T09:22:17;94943.38;;;24.27;29.07
62697;BME280;48761;42.680;23.312;2024-03-29T09:24:44;94932.91;;;24.24;28.55
62697;BME280;48761;42.680;23.312;2024-03-29T09:27:09;94942.38;;;24.50;28.81
62697;BME280;48761;42.680;23.312;2024-03-29T09:29:36;94931.81;;;24.40;27.85
62697;BME280;48761;42.680;23.312;2024-03-29T09:32:02;94913.44;;;23.68;29.10
62697;BME280;48761;42.680;23.312;2024-03-29T09:34:28;94908.28;;;23.43;29.66
62697;BME280;48761;42.680;23.312;2024-03-29T09:36:54;94910.34;;;23.56;29.92
62697;BME280;48761;42.680;23.312;2024-03-29T09:39:20;94909.25;;;23.50;29.79
62697;BME280;48761;42.680;23.312;2024-03-29T09:41:46;94905.34;;;23.90;30.14
62697;BME280;48761;42.680;23.312;2024-03-29T09:44:12;94907.84;;;24.66;28.81
62697;BME280;48761;42.680;23.312;2024-03-29T09:46:38;94901.91;;;24.34;28.85
62697;BME280;48761;42.680;23.312;2024-03-29T09:49:04;94899.69;;;24.07;29.04
62697;BME280;48761;42.680;23.312;2024-03-29T09:51:31;94890.28;;;23.88;29.03
62697;BME280;48761;42.680;23.312;2024-03-29T09:53:59;94897.09;;;23.99;29.11
62697;BME280;48761;42.680;23.312;2024-03-29T09:56:26;94890.28;;;23.88;28.27
62697;BME280;48761;42.680;23.312;2024-03-29T09:58:52;94892.84;;;23.74;28.45
62697;BME280;48761;42.680;23.312;2024-03-29T10:01:18;94886.47;;;23.82;29.03
62697;BME280;48761;42.680;23.312;2024-03-29T10:03:48;94896.09;;;24.22;28.30
62697;BME280;48761;42.680;23.312;2024-03-29T10:06:15;94890.00;;;23.98;28.58
62697;BME280;48761;42.680;23.312;2024-03-29T10:08:41;94894.09;;;24.09;28.71
62697;BME280;48761;42.680;23.312;2024-03-29T10:11:07;94895.25;;;24.36;28.81
62697;BME280;48761;42.680;23.312;2024-03-29T10:13:32;94890.59;;;24.15;28.39
62697;BME280;48761;42.680;23.312;2024-03-29T10:15:58;94881.00;;;23.97;28.27
62697;BME280;48761;42.680;23.312;2024-03-29T10:18:26;94883.94;;;24.17;29.24
62697;BME280;48761;42.680;23.312;2024-03-29T10:21:07;94874.75;;;24.34;28.74
62697;BME280;48761;42.680;23.312;2024-03-29T10:23:36;94878.28;;;23.97;29.26
62697;BME280;48761;42.680;23.312;2024-03-29T10:26:03;94881.34;;;23.57;29.09
62697;BME280;48761;42.680;23.312;2024-03-29T10:28:33;94882.25;;;23.79;29.32
62697;BME280;48761;42.680;23.312;2024-03-29T10:31:00;94881.13;;;23.89;28.84
62697;BME280;48761;42.680;23.312;2024-03-29T10:33:33;94885.16;;;24.15;29.04
62697;BME280;48761;42.680;23.312;2024-03-29T10:36:00;94884.50;;;23.91;28.53
62697;BME280;48761;42.680;23.312;2024-03-29T10:38:27;94867.19;;;23.77;29.17
62697;BME280;48761;42.680;23.312;2024-03-29T10:40:53;94877.16;;;24.06;29.46
62697;BME280;48761;42.680;23.312;2024-03-29T10:43:20;94871.38;;;24.32;29.06
62697;BME280;48761;42.680;23.312;2024-03-29T10:45:47;94874.81;;;24.25;29.55
62697;BME280;48761;42.680;23.312;2024-03-29T10:48:15;94869.13;;;24.20;29.41
62697;BME280;48761;42.680;23.312;2024-03-29T10:50:43;94866.88;;;23.87;29.83
62697;BME280;48761;42.680;23.312;2024-03-29T10:53:10;94865.16;;;23.79;29.63
62697;BME280;48761;42.680;23.312;2024-03-29T10:55:36;94858.72;;;23.65;29.22
62697;BME280;48761;42.680;23.312;2024-03-29T10:58:04;94855.72;;;23.29;29.65
62697;BME280;48761;42.680;23.312;2024-03-29T11:00:46;94850.47;;;22.82;30.34
62697;BME280;48761;42.680;23.312;2024-03-29T11:03:23;94853.94;;;23.36;30.05
62697;BME280;48761;42.680;23.312;2024-03-29T11:05:51;94846.28;;;23.70;30.11
62697;BME280;48761;42.680;23.312;2024-03-29T11:08:24;94850.75;;;23.78;29.80
62697;BME280;48761;42.680;23.312;2024-03-29T11:10:53;94850.22;;;23.68;30.71
62697;BME280;48761;42.680;23.312;2024-03-29T11:13:49;94844.41;;;23.71;30.43
62697;BME280;48761;42.680;23.312;2024-03-29T11:16:18;94848.31;;;23.83;30.70
62697;BME280;48761;42.680;23.312;2024-03-29T11:18:44;94843.25;;;23.80;30.37
62697;BME280;48761;42.680;23.312;2024-03-29T11:21:11;94842.44;;;23.65;30.36
62697;BME280;48761;42.680;23.312;2024-03-29T11:23:37;94843.66;;;23.01;31.58
62697;BME280;48761;42.680;23.312;2024-03-29T11:26:03;94836.38;;;23.47;30.88
62697;BME280;48761;42.680;23.312;2024-03-29T11:28:31;94843.97;;;23.52;30.79
62697;BME280;48761;42.680;23.312;2024-03-29T11:31:02;94839.75;;;23.49;31.61
62697;BME280;48761;42.680;23.312;2024-03-29T11:33:35;94838.72;;;23.66;31.16
62697;BME280;48761;42.680;23.312;2024-03-29T11:36:11;94834.66;;;23.46;31.51
62697;BME280;48761;42.680;23.312;2024-03-29T11:38:37;94833.66;;;23.62;31.14
62697;BME280;48761;42.680;23.312;2024-03-29T11:41:06;94833.13;;;23.52;31.81
62697;BME280;48761;42.680;23.312;2024-03-29T11:43:33;94836.47;;;23.54;31.44
62697;BME280;48761;42.680;23.312;2024-03-29T11:46:01;94834.63;;;23.77;31.83
62697;BME280;48761;42.680;23.312;2024-03-29T11:48:28;94830.84;;;23.71;31.29
62697;BME280;48761;42.680;23.312;2024-03-29T11:50:54;94827.31;;;23.55;31.46
62697;BME280;48761;42.680;23.312;2024-03-29T11:53:20;94820.03;;;23.40;32.16
62697;BME280;48761;42.680;23.312;2024-03-29T11:55:47;94824.50;;;23.64;31.82
62697;BME280;48761;42.680;23.312;2024-03-29T11:58:13;94810.41;;;23.53;31.96
62697;BME280;48761;42.680;23.312;2024-03-29T12:00:39;94813.25;;;23.67;32.13
62697;BME280;48761;42.680;23.312;2024-03-29T12:03:05;94815.09;;;23.81;32.63
62697;BME280;48761;42.680;23.312;2024-03-29T12:05:31;94811.31;;;23.45;32.10
62697;BME280;48761;42.680;23.312;2024-03-29T12:07:57;94812.88;;;23.70;32.02
62697;BME280;48761;42.680;23.312;2024-03-29T12:10:28;94814.03;;;23.60;32.37
62697;BME280;48761;42.680;23.312;2024-03-29T12:12:57;94811.63;;;23.35;31.94
62697;BME280;48761;42.680;23.312;2024-03-29T12:15:29;94803.75;;;23.40;31.88
62697;BME280;48761;42.680;23.312;2024-03-29T12:17:56;94810.22;;;23.24;32.45
62697;BME280;48761;42.680;23.312;2024-03-29T12:20:22;94815.25;;;23.58;32.20
62697;BME280;48761;42.680;23.312;2024-03-29T12:22:49;94819.06;;;23.48;32.48
62697;BME280;48761;42.680;23.312;2024-03-29T12:25:15;94811.50;;;23.13;32.62
62697;BME280;48761;42.680;23.312;2024-03-29T12:27:43;94816.47;;;23.55;32.05
62697;BME280;48761;42.680;23.312;2024-03-29T12:30:10;94808.41;;;23.47;31.83
62697;BME280;48761;42.680;23.312;2024-03-29T12:32:36;94806.06;;;23.44;32.56
62697;BME280;48761;42.680;23.312;2024-03-29T12:35:12;94805.63;;;23.25;32.31
62697;BME280;48761;42.680;23.312;2024-03-29T12:37:47;94804.16;;;23.07;31.95
62697;BME280;48761;42.680;23.312;2024-03-29T12:40:13;94801.97;;;23.48;31.62
62697;BME280;48761;42.680;23.312;2024-03-29T12:42:41;94805.50;;;23.48;31.67
62697;BME280;48761;42.680;23.312;2024-03-29T12:45:07;94801.69;;;23.43;30.47
62697;BME280;48761;42.680;23.312;2024-03-29T12:47:34;94784.31;;;23.22;31.34